createdAt,value
2023-01-23T00:02:11.080Z,18.60
2023-01-23T00:04:38.284Z,18.60
2023-01-23T00:07:05.609Z,18.50
2023-01-23T00:09:32.879Z,18.60
2023-01-23T00:11:59.580Z,18.50
2023-01-23T00:14:26.634Z,18.50
2023-01-23T00:16:53.332Z,18.50
2023-01-23T00:19:20.243Z,18.50
2023-01-23T00:21:46.943Z,18.50
2023-01-23T00:24:13.656Z,18.50
2023-01-23T00:26:40.502Z,18.50
2023-01-23T00:29:07.365Z,18.40
2023-01-23T00:31:35.742Z,18.50
2023-01-23T00:34:04.331Z,18.40
2023-01-23T00:36:32.838Z,18.40
2023-01-23T00:38:59.748Z,18.40
2023-01-23T00:41:26.905Z,18.40
2023-01-23T00:43:53.628Z,18.40
2023-01-23T00:46:23.182Z,18.40
2023-01-23T00:48:50.384Z,18.30
2023-01-23T00:51:17.220Z,18.40
2023-01-23T00:53:44.442Z,18.30
2023-01-23T00:56:11.116Z,18.30
2023-01-23T00:58:37.770Z,18.30
2023-01-23T01:01:04.516Z,18.30
2023-01-23T01:03:31.667Z,18.30
2023-01-23T01:05:58.327Z,18.30
2023-01-23T01:08:25.548Z,18.30
2023-01-23T01:10:52.279Z,18.20
2023-01-23T01:13:21.324Z,18.20
2023-01-23T01:15:49.044Z,18.20
2023-01-23T01:18:16.556Z,18.20
2023-01-23T01:20:44.063Z,18.20
2023-01-23T01:23:11.172Z,18.20
2023-01-23T01:25:37.998Z,18.20
2023-01-23T01:28:05.156Z,18.20
2023-01-23T01:30:31.821Z,18.20
2023-01-23T01:32:58.480Z,18.20
2023-01-23T01:35:25.431Z,18.20
2023-01-23T01:37:52.127Z,18.20
2023-01-23T01:40:21.124Z,18.20
2023-01-23T01:42:54.186Z,18.10
2023-01-23T01:45:39.741Z,18.10
2023-01-23T01:48:06.429Z,18.10
2023-01-23T01:50:35.186Z,18.10
2023-01-23T01:53:01.864Z,18.10
2023-01-23T01:55:28.782Z,18.10
2023-01-23T01:57:55.457Z,18.10
2023-01-23T02:00:22.436Z,18.10
2023-01-23T02:02:51.200Z,18.10
2023-01-23T02:05:30.130Z,18.10
2023-01-23T02:08:16.046Z,18.10
2023-01-23T02:10:44.118Z,18.20
2023-01-23T02:13:36.044Z,18.20
2023-01-23T02:16:04.531Z,18.20
2023-01-23T02:18:32.581Z,18.20
2023-01-23T02:21:01.500Z,18.20
2023-01-23T02:23:28.292Z,18.20
2023-01-23T02:25:56.265Z,18.20
2023-01-23T02:28:23.151Z,18.20
2023-01-23T02:31:09.816Z,18.20
2023-01-23T02:33:36.453Z,18.20
2023-01-23T02:36:05.470Z,18.30
2023-01-23T02:38:42.610Z,18.30
2023-01-23T02:41:11.580Z,18.30
2023-01-23T02:43:38.420Z,18.30
2023-01-23T02:46:06.533Z,18.30
2023-01-23T02:48:33.303Z,18.30
2023-01-23T02:51:00.024Z,18.40
2023-01-23T02:53:27.519Z,18.40
2023-01-23T02:55:54.277Z,18.30
2023-01-23T02:58:39.678Z,18.40
2023-01-23T03:01:06.462Z,18.40
2023-01-23T03:03:33.182Z,18.40
2023-01-23T03:06:03.195Z,18.40
2023-01-23T03:08:49.089Z,18.40
2023-01-23T03:11:18.980Z,18.40
2023-01-23T03:13:47.089Z,18.40
2023-01-23T03:16:13.855Z,18.40
2023-01-23T03:18:53.626Z,18.40
2023-01-23T03:21:20.781Z,18.50
2023-01-23T03:23:48.363Z,18.50
2023-01-23T03:26:15.769Z,18.50
2023-01-23T03:29:01.207Z,18.50
2023-01-23T03:31:27.967Z,18.50
2023-01-23T03:33:54.779Z,18.50
2023-01-23T03:36:21.516Z,18.50
2023-01-23T03:39:06.921Z,18.50
2023-01-23T03:41:33.600Z,18.50
2023-01-23T03:44:00.721Z,18.50
2023-01-23T03:46:27.543Z,18.50
2023-01-23T03:48:54.190Z,18.60
2023-01-23T03:51:20.890Z,18.60
2023-01-23T03:53:47.664Z,18.50
2023-01-23T03:56:14.321Z,18.50
2023-01-23T03:58:40.973Z,18.50
2023-01-23T04:01:08.379Z,18.60
2023-01-23T04:03:35.445Z,18.60
2023-01-23T04:06:02.329Z,18.60
2023-01-23T04:08:29.555Z,18.60
2023-01-23T04:11:03.457Z,18.60
2023-01-23T04:13:30.252Z,18.60
2023-01-23T04:15:56.918Z,18.60
2023-01-23T04:18:24.206Z,18.60
2023-01-23T04:20:51.429Z,18.60
2023-01-23T04:23:18.188Z,18.60
2023-01-23T04:25:44.899Z,18.60
2023-01-23T04:28:11.681Z,18.60
2023-01-23T04:30:38.635Z,18.60
2023-01-23T04:33:05.371Z,18.70
2023-01-23T04:35:32.020Z,18.70
2023-01-23T04:37:59.182Z,18.70
2023-01-23T04:40:26.200Z,18.70
2023-01-23T04:42:52.916Z,18.70
2023-01-23T04:45:19.640Z,18.70
2023-01-23T04:47:46.470Z,18.70
2023-01-23T04:50:13.178Z,18.80
2023-01-23T04:52:39.879Z,18.70
2023-01-23T04:55:06.693Z,18.70
2023-01-23T04:57:33.365Z,18.80
2023-01-23T05:00:00.708Z,18.80
2023-01-23T05:02:27.585Z,18.80
2023-01-23T05:04:54.348Z,18.80
2023-01-23T05:07:21.035Z,18.80
2023-01-23T05:09:47.757Z,18.80
2023-01-23T05:12:14.441Z,18.80
2023-01-23T05:14:41.839Z,18.80
2023-01-23T05:17:08.530Z,18.80
2023-01-23T05:19:35.206Z,18.80
2023-01-23T05:22:01.875Z,18.80
2023-01-23T05:24:28.541Z,18.80
2023-01-23T05:26:55.192Z,18.90
2023-01-23T05:29:21.889Z,18.90
2023-01-23T05:31:51.091Z,18.90
2023-01-23T05:34:17.786Z,18.90
2023-01-23T05:36:44.454Z,18.90
2023-01-23T05:39:11.121Z,18.90
2023-01-23T05:41:38.229Z,18.90
2023-01-23T05:44:05.400Z,18.90
2023-01-23T05:46:32.079Z,18.90
2023-01-23T05:48:58.829Z,19.00
2023-01-23T05:51:31.574Z,19.00
2023-01-23T05:53:58.988Z,19.00
2023-01-23T05:56:25.660Z,19.00
2023-01-23T05:58:52.779Z,19.10
2023-01-23T06:01:19.601Z,19.10
2023-01-23T06:03:46.415Z,19.10
2023-01-23T06:06:13.277Z,19.10
2023-01-23T06:08:40.004Z,19.10
2023-01-23T06:11:07.209Z,19.10
2023-01-23T06:13:33.911Z,19.20
2023-01-23T06:16:01.235Z,19.20
2023-01-23T06:18:27.981Z,19.20
2023-01-23T06:21:01.320Z,19.20
2023-01-23T06:23:28.859Z,19.20
2023-01-23T06:25:59.410Z,19.20
2023-01-23T06:28:26.113Z,19.20
2023-01-23T06:30:52.886Z,19.20
2023-01-23T06:33:20.045Z,19.30
2023-01-23T06:35:47.206Z,19.20
2023-01-23T06:38:16.784Z,19.30
2023-01-23T06:40:43.749Z,19.30
2023-01-23T06:43:10.415Z,19.30
2023-01-23T06:45:37.530Z,19.30
2023-01-23T06:48:04.878Z,19.30
2023-01-23T06:50:31.526Z,19.30
2023-01-23T06:52:58.691Z,19.30
2023-01-23T06:55:25.892Z,19.30
2023-01-23T06:57:53.080Z,19.30
2023-01-23T07:00:20.760Z,19.30
2023-01-23T07:02:47.578Z,19.30
2023-01-23T07:05:15.136Z,19.30
2023-01-23T07:07:42.410Z,19.30
2023-01-23T07:10:09.694Z,19.40
2023-01-23T07:12:37.677Z,19.40
2023-01-23T07:15:04.600Z,19.30
2023-01-23T07:17:31.266Z,19.30
2023-01-23T07:20:00.283Z,19.40
2023-01-23T07:22:26.928Z,19.40
2023-01-23T07:24:53.598Z,19.40
2023-01-23T07:27:20.237Z,19.40
2023-01-23T07:29:46.943Z,19.40
2023-01-23T07:32:13.612Z,19.40
2023-01-23T07:34:40.304Z,19.40
2023-01-23T07:37:06.992Z,19.40
2023-01-23T07:39:33.741Z,19.40
2023-01-23T07:42:00.408Z,19.40
2023-01-23T07:44:27.099Z,19.40
2023-01-23T07:46:53.942Z,19.40
2023-01-23T07:49:20.654Z,19.40
2023-01-23T07:51:47.846Z,19.40
2023-01-23T07:54:15.027Z,19.40
2023-01-23T07:56:41.736Z,19.40
2023-01-23T07:59:08.432Z,19.40
2023-01-23T08:01:35.671Z,19.40
2023-01-23T08:04:02.975Z,19.40
2023-01-23T08:06:30.235Z,19.40
2023-01-23T08:08:59.015Z,19.40
2023-01-23T08:11:26.667Z,19.40
2023-01-23T08:13:53.361Z,19.40
2023-01-23T08:16:20.159Z,19.40
2023-01-23T08:18:46.865Z,19.40
2023-01-23T08:21:13.672Z,19.40
2023-01-23T08:23:41.212Z,19.40
2023-01-23T08:26:08.850Z,19.40
2023-01-23T08:28:36.037Z,19.40
2023-01-23T08:31:07.205Z,19.40
2023-01-23T08:33:34.959Z,19.40
2023-01-23T08:36:01.679Z,19.40
2023-01-23T08:38:28.429Z,19.40
2023-01-23T08:40:58.392Z,19.40
2023-01-23T08:43:25.154Z,19.40
2023-01-23T08:45:53.990Z,19.50
2023-01-23T08:48:21.493Z,19.40
2023-01-23T08:50:48.251Z,19.40
2023-01-23T08:53:15.075Z,19.40
2023-01-23T08:55:44.179Z,19.40
2023-01-23T08:58:13.115Z,19.50
2023-01-23T09:00:40.335Z,19.50
2023-01-23T09:03:08.935Z,19.50
2023-01-23T09:05:37.768Z,19.50
2023-01-23T09:08:05.072Z,19.50
2023-01-23T09:10:31.749Z,19.50
2023-01-23T09:12:58.708Z,19.50
2023-01-23T09:15:25.379Z,19.50
2023-01-23T09:17:52.066Z,19.50
2023-01-23T09:20:18.996Z,19.50
2023-01-23T09:22:45.874Z,19.50
2023-01-23T09:25:14.207Z,19.50
2023-01-23T09:27:41.029Z,19.50
2023-01-23T09:30:08.019Z,19.50
2023-01-23T09:32:34.731Z,19.50
2023-01-23T09:35:01.411Z,19.50
2023-01-23T09:37:29.696Z,19.50
2023-01-23T09:39:56.407Z,19.50
2023-01-23T09:42:29.120Z,19.50
2023-01-23T09:45:00.495Z,19.50
2023-01-23T09:47:40.174Z,19.50
2023-01-23T09:50:08.522Z,19.50
2023-01-23T09:52:41.334Z,19.50
2023-01-23T09:55:14.672Z,19.50
2023-01-23T09:58:01.323Z,19.50
2023-01-23T10:00:32.598Z,19.50
2023-01-23T10:03:03.587Z,19.50
2023-01-23T10:05:30.222Z,19.50
2023-01-23T10:08:00.882Z,19.50
2023-01-23T10:10:48.164Z,19.50
2023-01-23T10:13:16.525Z,19.50
2023-01-23T10:15:49.409Z,19.50
2023-01-23T10:18:24.441Z,19.50
2023-01-23T10:20:51.391Z,19.50
2023-01-23T10:23:24.576Z,19.50
2023-01-23T10:25:51.361Z,19.50
2023-01-23T10:28:27.582Z,19.50
2023-01-23T10:30:58.560Z,19.50
2023-01-23T10:33:49.190Z,19.50
2023-01-23T10:36:47.477Z,19.50
2023-01-23T10:39:26.787Z,19.50
2023-01-23T10:42:01.485Z,19.40
2023-01-23T10:44:28.603Z,19.50
2023-01-23T10:47:00.982Z,19.50
2023-01-23T10:49:33.018Z,19.50
2023-01-23T10:51:59.692Z,19.50
2023-01-23T10:54:32.910Z,19.50
2023-01-23T10:57:19.939Z,19.50
2023-01-23T11:00:00.463Z,19.50
2023-01-23T11:02:28.935Z,19.50
2023-01-23T11:04:55.769Z,19.50
2023-01-23T11:07:25.432Z,19.50
2023-01-23T11:09:52.108Z,19.50
2023-01-23T11:12:22.969Z,19.50
2023-01-23T11:14:49.988Z,19.50
2023-01-23T11:17:19.114Z,19.50
2023-01-23T11:19:46.893Z,19.50
2023-01-23T11:22:28.048Z,19.50
2023-01-23T11:24:54.797Z,19.50
2023-01-23T11:27:26.372Z,19.50
2023-01-23T11:30:08.457Z,19.50
2023-01-23T11:32:58.729Z,19.60
2023-01-23T11:35:29.428Z,19.50
2023-01-23T11:37:57.108Z,19.50
2023-01-23T11:40:23.840Z,19.50
2023-01-23T11:42:50.566Z,19.50
2023-01-23T11:45:20.228Z,19.50
2023-01-23T11:47:56.242Z,19.50
2023-01-23T11:50:37.167Z,19.50
2023-01-23T11:53:13.776Z,19.50
2023-01-23T11:55:46.679Z,19.50
2023-01-23T11:58:14.607Z,19.50
2023-01-23T12:01:03.199Z,19.50
2023-01-23T12:03:42.179Z,19.50
2023-01-23T12:06:20.694Z,19.50
2023-01-23T12:08:50.203Z,19.50
2023-01-23T12:11:18.073Z,19.50
2023-01-23T12:13:47.757Z,19.50
2023-01-23T12:16:24.314Z,19.50
2023-01-23T12:19:09.335Z,19.50
2023-01-23T12:21:43.790Z,19.50
2023-01-23T12:24:28.994Z,19.50
2023-01-23T12:27:06.431Z,19.50
2023-01-23T12:29:38.812Z,19.50
2023-01-23T12:32:05.521Z,19.50
2023-01-23T12:34:47.497Z,19.50
2023-01-23T12:37:30.015Z,19.50
2023-01-23T12:40:00.191Z,19.50
2023-01-23T12:42:30.923Z,19.50
2023-01-23T12:45:13.634Z,19.50
2023-01-23T12:47:40.335Z,19.50
2023-01-23T12:50:16.125Z,19.50
2023-01-23T12:52:47.969Z,19.50
2023-01-23T12:55:33.334Z,19.50
2023-01-23T12:58:08.597Z,19.50
2023-01-23T13:00:49.883Z,19.50
2023-01-23T13:03:45.986Z,19.50
2023-01-23T13:06:26.858Z,19.50
2023-01-23T13:09:17.434Z,19.50
2023-01-23T13:11:44.953Z,19.50
2023-01-23T13:14:22.186Z,19.50
2023-01-23T13:16:49.956Z,19.50
2023-01-23T13:19:44.807Z,19.50
2023-01-23T13:22:22.321Z,19.50
2023-01-23T13:25:10.096Z,19.50
2023-01-23T13:27:55.697Z,19.50
2023-01-23T13:30:26.094Z,19.50
2023-01-23T13:32:53.843Z,19.40
2023-01-23T13:35:38.998Z,19.40
2023-01-23T13:38:30.312Z,19.40
2023-01-23T13:41:04.350Z,19.40
2023-01-23T13:44:03.256Z,19.40
2023-01-23T13:46:39.169Z,19.40
2023-01-23T14:21:41.678Z,19.40
2023-01-23T14:27:29.449Z,19.40
2023-01-23T14:29:58.091Z,19.40
2023-01-23T14:32:25.345Z,19.40
2023-01-23T14:34:52.007Z,19.40
2023-01-23T14:37:18.867Z,19.40
2023-01-23T14:39:53.056Z,19.40
2023-01-23T14:42:30.516Z,19.40
2023-01-23T14:44:58.597Z,19.30
2023-01-23T14:47:34.031Z,19.40
2023-01-23T14:50:01.675Z,19.40
2023-01-23T14:52:29.562Z,19.30
2023-01-23T14:54:59.145Z,19.30
2023-01-23T14:57:28.772Z,19.30
2023-01-23T14:59:56.637Z,19.30
2023-01-23T15:02:32.615Z,19.30
2023-01-23T15:05:08.218Z,19.30
2023-01-23T15:07:35.870Z,19.30
2023-01-23T15:10:02.859Z,19.30
2023-01-23T15:12:29.542Z,19.30
2023-01-23T15:14:56.372Z,19.30
2023-01-23T15:17:23.094Z,19.30
2023-01-23T15:19:50.845Z,19.30
2023-01-23T15:22:27.308Z,19.30
2023-01-23T15:24:53.960Z,19.20
2023-01-23T15:27:24.405Z,19.30
2023-01-23T15:29:51.297Z,19.30
2023-01-23T15:32:24.073Z,19.30
2023-01-23T15:34:55.159Z,19.20
2023-01-23T15:37:23.241Z,19.30
2023-01-23T15:39:51.525Z,19.20
2023-01-23T15:42:18.660Z,19.20
2023-01-23T15:44:45.561Z,19.20
2023-01-23T15:47:12.247Z,19.20
2023-01-23T15:49:39.653Z,19.20
2023-01-23T15:52:29.011Z,19.20
2023-01-23T15:55:00.224Z,19.30
2023-01-23T15:57:27.172Z,19.30
2023-01-23T15:59:53.840Z,19.30
2023-01-23T16:02:30.582Z,19.30
2023-01-23T16:04:58.760Z,19.30
2023-01-23T16:07:27.232Z,19.20
2023-01-23T16:09:55.251Z,19.20
2023-01-23T16:12:24.909Z,19.20
2023-01-23T16:14:51.587Z,19.20
2023-01-23T16:17:18.258Z,19.20
2023-01-23T16:19:45.393Z,19.20
2023-01-23T16:22:17.878Z,19.20
2023-01-23T16:24:44.660Z,19.20
2023-01-23T16:27:15.677Z,19.20
2023-01-23T16:29:44.030Z,19.20
2023-01-23T16:32:10.880Z,19.20
2023-01-23T16:34:37.703Z,19.20
2023-01-23T16:37:04.732Z,19.20
2023-01-23T16:39:32.617Z,19.10
2023-01-23T16:42:00.127Z,19.10
2023-01-23T16:44:27.845Z,19.10
2023-01-23T16:46:55.115Z,19.10
2023-01-23T16:49:22.438Z,19.10
2023-01-23T16:51:57.498Z,19.10
2023-01-23T16:54:24.732Z,19.10
2023-01-23T16:56:53.799Z,19.10
2023-01-23T16:59:29.353Z,19.10
2023-01-23T17:01:56.243Z,19.10
2023-01-23T17:04:23.425Z,19.10
2023-01-23T17:06:50.175Z,19.10
2023-01-23T17:09:17.495Z,19.10
2023-01-23T17:11:46.645Z,19.10
2023-01-23T17:14:32.432Z,19.10
2023-01-23T17:17:03.106Z,19.10
2023-01-23T17:19:31.448Z,19.20
2023-01-23T17:21:59.046Z,19.20
2023-01-23T17:24:25.946Z,19.20
2023-01-23T17:26:52.670Z,19.30
2023-01-23T17:29:20.120Z,19.30
2023-01-23T17:31:47.568Z,19.30
2023-01-23T17:34:20.411Z,19.30
2023-01-23T17:36:47.661Z,19.30
2023-01-23T17:39:14.877Z,19.30
2023-01-23T17:41:42.028Z,19.30
2023-01-23T17:44:08.721Z,19.30
2023-01-23T17:46:39.542Z,19.30
2023-01-23T17:49:33.175Z,19.30
2023-01-23T17:52:01.192Z,19.30
2023-01-23T17:54:28.598Z,19.30
2023-01-23T17:56:55.272Z,19.30
2023-01-23T17:59:22.028Z,19.30
2023-01-23T18:01:48.765Z,19.30
2023-01-23T18:04:20.320Z,19.30
2023-01-23T18:06:47.101Z,19.30
2023-01-23T18:09:14.175Z,19.30
2023-01-23T18:11:42.770Z,19.30
2023-01-23T18:14:18.647Z,19.30
2023-01-23T18:16:45.867Z,19.30
2023-01-23T18:19:15.445Z,19.30
2023-01-23T18:21:42.468Z,19.30
2023-01-23T18:24:30.330Z,19.30
2023-01-23T18:27:06.547Z,19.30
2023-01-23T18:29:42.641Z,19.30
2023-01-23T18:32:23.921Z,19.30
2023-01-23T18:34:53.921Z,19.30
2023-01-23T18:37:20.547Z,19.20
2023-01-23T18:40:05.602Z,19.20
2023-01-23T18:42:35.538Z,19.30
2023-01-23T18:45:07.136Z,19.30
2023-01-23T18:47:34.420Z,19.20
2023-01-23T18:50:01.771Z,19.20
2023-01-23T18:52:40.810Z,19.30
2023-01-23T18:55:11.184Z,19.20
2023-01-23T18:57:47.218Z,19.30
2023-01-23T19:00:14.846Z,19.20
2023-01-23T19:02:50.556Z,19.20
2023-01-23T19:05:21.111Z,19.20
2023-01-23T19:07:49.230Z,19.20
2023-01-23T19:10:17.573Z,19.20
2023-01-23T19:12:50.081Z,19.20
2023-01-23T19:15:35.251Z,19.20
2023-01-23T19:18:05.572Z,19.20
2023-01-23T19:20:53.965Z,19.20
2023-01-23T19:23:25.929Z,19.20
2023-01-23T19:25:52.751Z,19.20
2023-01-23T19:28:20.083Z,19.20
2023-01-23T19:30:47.457Z,19.10
2023-01-23T19:33:18.216Z,19.10
2023-01-23T19:35:46.746Z,19.20
2023-01-23T19:38:15.051Z,19.10
2023-01-23T19:40:42.470Z,19.10
2023-01-23T19:43:16.756Z,19.20
2023-01-23T19:45:47.198Z,19.10
2023-01-23T19:48:14.433Z,19.10
2023-01-23T19:50:41.100Z,19.10
2023-01-23T19:53:08.324Z,19.10
2023-01-23T19:55:37.050Z,19.10
2023-01-23T19:58:04.413Z,19.10
2023-01-23T20:00:33.142Z,19.10
2023-01-23T20:03:00.354Z,19.10
2023-01-23T20:05:27.026Z,19.00
2023-01-23T20:07:57.215Z,19.10
2023-01-23T20:10:23.905Z,19.10
2023-01-23T20:12:55.283Z,19.00
2023-01-23T20:15:24.181Z,19.00
2023-01-23T20:17:51.584Z,19.00
2023-01-23T20:20:19.113Z,19.00
2023-01-23T20:22:46.086Z,19.00
2023-01-23T20:25:14.608Z,18.90
2023-01-23T20:27:45.183Z,18.90
2023-01-23T20:30:14.218Z,19.00
2023-01-23T20:32:41.231Z,18.90
2023-01-23T20:35:08.096Z,18.90
2023-01-23T20:37:34.843Z,18.90
2023-01-23T20:40:01.614Z,19.00
2023-01-23T20:42:28.318Z,18.90
2023-01-23T20:44:54.985Z,18.90
2023-01-23T20:47:22.223Z,18.90
2023-01-23T20:49:51.257Z,18.90
2023-01-23T20:52:36.588Z,18.90
2023-01-23T20:55:03.336Z,18.90
2023-01-23T20:57:49.987Z,18.90
2023-01-23T21:00:16.905Z,18.80
2023-01-23T21:02:44.140Z,18.90
2023-01-23T21:05:10.929Z,18.80
2023-01-23T21:07:37.625Z,18.80
2023-01-23T21:10:05.041Z,18.70
2023-01-23T21:12:31.961Z,18.80
2023-01-23T21:14:59.080Z,18.80
2023-01-23T21:17:26.304Z,18.70
2023-01-23T21:19:55.181Z,18.80
2023-01-23T21:22:21.852Z,18.70
2023-01-23T21:24:48.981Z,18.70
2023-01-23T21:27:20.349Z,18.70
2023-01-23T21:29:48.266Z,18.70
2023-01-23T21:32:14.860Z,18.70
2023-01-23T21:34:42.055Z,18.70
2023-01-23T21:37:10.901Z,18.70
2023-01-23T21:39:38.202Z,18.70
2023-01-23T21:42:05.602Z,18.60
2023-01-23T21:44:34.515Z,18.70
2023-01-23T21:47:02.160Z,18.60
2023-01-23T21:49:30.490Z,18.60
2023-01-23T21:51:58.618Z,18.60
2023-01-23T21:54:25.303Z,18.60
2023-01-23T21:56:52.008Z,18.60
2023-01-23T21:59:18.670Z,18.60
2023-01-23T22:01:46.837Z,18.60
2023-01-23T22:04:18.445Z,18.60
2023-01-23T22:06:46.214Z,18.60
2023-01-23T22:09:17.601Z,18.50
2023-01-23T22:11:44.709Z,18.50
2023-01-23T22:14:11.381Z,18.60
2023-01-23T22:16:48.951Z,18.50
2023-01-23T22:19:17.730Z,18.50
2023-01-23T22:21:46.361Z,18.50
2023-01-23T22:24:13.873Z,18.50
2023-01-23T22:26:40.647Z,18.50
2023-01-23T22:29:08.517Z,18.70
2023-01-23T22:31:35.327Z,18.50
2023-01-23T22:34:02.079Z,18.50
2023-01-23T22:36:28.845Z,18.50
2023-01-23T22:38:55.582Z,18.50
2023-01-23T22:41:23.067Z,18.50
2023-01-23T22:43:54.290Z,18.50
2023-01-23T22:46:21.371Z,18.50
2023-01-23T22:48:48.080Z,18.50
2023-01-23T22:51:16.319Z,18.40
2023-01-23T22:53:43.170Z,18.40
2023-01-23T22:56:09.983Z,18.40
2023-01-23T22:58:36.668Z,18.40
2023-01-23T23:01:03.836Z,18.40
2023-01-23T23:03:31.573Z,18.40
2023-01-23T23:05:59.614Z,18.40
2023-01-23T23:08:26.894Z,18.40
2023-01-23T23:11:12.956Z,18.40
2023-01-23T23:13:40.393Z,18.40
2023-01-23T23:16:14.947Z,18.30
2023-01-23T23:18:41.652Z,18.30
2023-01-23T23:21:09.389Z,18.30
2023-01-23T23:23:36.121Z,18.30
2023-01-23T23:26:04.649Z,18.30
2023-01-23T23:28:31.897Z,18.30
2023-01-23T23:30:58.709Z,18.30
2023-01-23T23:33:25.416Z,18.30
2023-01-23T23:35:52.407Z,18.30
2023-01-23T23:38:19.280Z,18.30
2023-01-23T23:40:55.453Z,18.30
2023-01-23T23:43:22.828Z,18.20
2023-01-23T23:45:56.481Z,18.20
2023-01-23T23:48:23.491Z,18.20
2023-01-23T23:50:53.225Z,18.20
2023-01-23T23:53:20.313Z,18.20
2023-01-23T23:55:47.290Z,18.20
2023-01-23T23:58:14.059Z,18.20
